sensor_id;sensor_type;location;lat;lon;timestamp;noise_LAeq;noise_LA_min;noise_LA_max;noise_LA01;noise_LA95
64642;Laerm;59936;51.490;5.436;2023-07-29T00:05:19;35.78;33.90;38.83;;
64642;Laerm;59936;51.490;5.436;2023-07-29T00:07:48;36.23;34.05;39.01;;
64642;Laerm;59936;51.490;5.436;2023-07-29T00:10:17;36.31;32.95;47.62;;
64642;Laerm;59936;51.490;5.436;2023-07-29T00:12:46;35.46;33.10;40.03;;
64642;Laerm;59936;51.490;5.436;2023-07-29T00:15:14;36.30;31.87;45.37;;
64642;Laerm;59936;51.490;5.436;2023-07-29T00:17:43;35.89;33.15;40.13;;
64642;Laerm;59936;51.490;5.436;2023-07-29T00:20:11;36.32;32.94;43.00;;
64642;Laerm;59936;51.490;5.436;2023-07-29T00:22:40;36.25;31.72;43.09;;
64642;Laerm;59936;51.490;5.436;2023-07-29T00:25:08;36.77;31.66;43.87;;
64642;Laerm;59936;51.490;5.436;2023-07-29T00:27:37;35.50;32.92;39.22;;
64642;Laerm;59936;51.490;5.436;2023-07-29T00:30:06;36.33;33.66;40.24;;
64642;Laerm;59936;51.490;5.436;2023-07-29T00:32:35;35.43;32.19;40.84;;
64642;Laerm;59936;51.490;5.436;2023-07-29T00:35:05;36.74;33.30;41.24;;
64642;Laerm;59936;51.490;5.436;2023-07-29T00:37:33;37.31;33.92;41.18;;
64642;Laerm;59936;51.490;5.436;2023-07-29T00:40:02;38.63;35.50;47.45;;
64642;Laerm;59936;51.490;5.436;2023-07-29T00:42:31;37.64;33.27;46.01;;
64642;Laerm;59936;51.490;5.436;2023-07-29T00:44:59;39.35;34.25;48.34;;
64642;Laerm;59936;51.490;5.436;2023-07-29T00:47:28;37.72;33.92;49.19;;
64642;Laerm;59936;51.490;5.436;2023-07-29T00:49:56;36.52;33.66;41.36;;
64642;Laerm;59936;51.490;5.436;2023-07-29T00:52:25;35.11;32.15;39.01;;
64642;Laerm;59936;51.490;5.436;2023-07-29T00:54:54;36.25;33.61;39.24;;
64642;Laerm;59936;51.490;5.436;2023-07-29T00:57:24;36.13;33.10;41.24;;
64642;Laerm;59936;51.490;5.436;2023-07-29T00:59:54;40.18;34.28;45.92;;
64642;Laerm;59936;51.490;5.436;2023-07-29T01:02:22;37.12;32.87;41.86;;
64642;Laerm;59936;51.490;5.436;2023-07-29T01:04:58;38.27;34.65;48.06;;
64642;Laerm;59936;51.490;5.436;2023-07-29T01:13:00;37.58;33.50;52.51;;
64642;Laerm;59936;51.490;5.436;2023-07-29T01:16:10;36.88;33.94;41.26;;
64642;Laerm;59936;51.490;5.436;2023-07-29T01:18:47;37.85;35.26;43.78;;
64642;Laerm;59936;51.490;5.436;2023-07-29T01:21:17;37.66;34.99;40.93;;
64642;Laerm;59936;51.490;5.436;2023-07-29T01:23:45;37.72;34.63;43.57;;
64642;Laerm;59936;51.490;5.436;2023-07-29T01:26:14;38.55;35.48;42.34;;
64642;Laerm;59936;51.490;5.436;2023-07-29T01:28:42;37.30;34.32;42.31;;
64642;Laerm;59936;51.490;5.436;2023-07-29T01:31:46;39.12;35.51;44.01;;
64642;Laerm;59936;51.490;5.436;2023-07-29T01:34:29;40.04;35.94;44.83;;
64642;Laerm;59936;51.490;5.436;2023-07-29T01:37:00;38.73;35.84;44.58;;
64642;Laerm;59936;51.490;5.436;2023-07-29T01:39:35;38.49;35.28;41.57;;
64642;Laerm;59936;51.490;5.436;2023-07-29T01:42:05;38.54;34.54;43.69;;
64642;Laerm;59936;51.490;5.436;2023-07-29T01:44:35;43.48;36.95;70.09;;
64642;Laerm;59936;51.490;5.436;2023-07-29T01:47:04;41.92;38.08;50.93;;
64642;Laerm;59936;51.490;5.436;2023-07-29T01:49:33;40.20;36.81;50.17;;
64642;Laerm;59936;51.490;5.436;2023-07-29T01:52:02;41.20;37.03;47.63;;
64642;Laerm;59936;51.490;5.436;2023-07-29T01:54:30;41.09;36.77;47.62;;
64642;Laerm;59936;51.490;5.436;2023-07-29T01:56:59;40.32;37.15;44.24;;
64642;Laerm;59936;51.490;5.436;2023-07-29T01:59:27;39.88;36.74;45.09;;
64642;Laerm;59936;51.490;5.436;2023-07-29T02:01:56;40.26;37.04;44.81;;
64642;Laerm;59936;51.490;5.436;2023-07-29T02:04:24;39.69;36.19;45.28;;
64642;Laerm;59936;51.490;5.436;2023-07-29T02:06:53;39.62;35.95;47.54;;
64642;Laerm;59936;51.490;5.436;2023-07-29T02:09:21;39.51;36.15;45.81;;
64642;Laerm;59936;51.490;5.436;2023-07-29T02:11:50;38.94;35.57;45.31;;
64642;Laerm;59936;51.490;5.436;2023-07-29T02:14:19;39.18;36.12;44.23;;
64642;Laerm;59936;51.490;5.436;2023-07-29T02:16:47;38.97;36.08;44.77;;
64642;Laerm;59936;51.490;5.436;2023-07-29T02:19:16;39.68;37.05;45.70;;
64642;Laerm;59936;51.490;5.436;2023-07-29T02:21:44;38.91;36.13;42.41;;
64642;Laerm;59936;51.490;5.436;2023-07-29T02:24:13;39.04;35.52;48.84;;
64642;Laerm;59936;51.490;5.436;2023-07-29T02:26:41;39.39;36.07;44.01;;
64642;Laerm;59936;51.490;5.436;2023-07-29T02:29:10;38.57;36.27;42.49;;
64642;Laerm;59936;51.490;5.436;2023-07-29T02:31:39;39.39;36.22;43.42;;
64642;Laerm;59936;51.490;5.436;2023-07-29T02:34:07;39.65;36.69;43.74;;
64642;Laerm;59936;51.490;5.436;2023-07-29T02:36:36;38.52;35.96;42.12;;
64642;Laerm;59936;51.490;5.436;2023-07-29T02:39:04;38.02;35.43;41.27;;
64642;Laerm;59936;51.490;5.436;2023-07-29T02:41:33;39.17;35.61;42.55;;
64642;Laerm;59936;51.490;5.436;2023-07-29T02:44:02;37.73;35.21;41.28;;
64642;Laerm;59936;51.490;5.436;2023-07-29T02:46:30;38.89;36.53;43.35;;
64642;Laerm;59936;51.490;5.436;2023-07-29T02:48:59;38.60;35.98;42.95;;
64642;Laerm;59936;51.490;5.436;2023-07-29T02:51:27;39.06;35.89;45.72;;
64642;Laerm;59936;51.490;5.436;2023-07-29T02:53:56;39.57;35.69;44.18;;
64642;Laerm;59936;51.490;5.436;2023-07-29T02:56:25;38.12;33.80;44.76;;
64642;Laerm;59936;51.490;5.436;2023-07-29T02:58:53;37.75;34.69;41.47;;
64642;Laerm;59936;51.490;5.436;2023-07-29T03:01:22;38.09;35.81;41.06;;
64642;Laerm;59936;51.490;5.436;2023-07-29T03:03:51;38.48;35.65;45.51;;
64642;Laerm;59936;51.490;5.436;2023-07-29T03:06:20;38.19;35.23;41.76;;
64642;Laerm;59936;51.490;5.436;2023-07-29T03:08:48;39.24;36.39;41.83;;
64642;Laerm;59936;51.490;5.436;2023-07-29T03:11:17;37.77;35.62;43.22;;
64642;Laerm;59936;51.490;5.436;2023-07-29T03:13:45;38.43;36.11;42.57;;
64642;Laerm;59936;51.490;5.436;2023-07-29T03:16:17;38.54;35.61;45.55;;
64642;Laerm;59936;51.490;5.436;2023-07-29T03:18:48;38.55;35.34;42.93;;
64642;Laerm;59936;51.490;5.436;2023-07-29T03:21:17;39.27;36.97;44.25;;
64642;Laerm;59936;51.490;5.436;2023-07-29T03:23:45;39.69;36.90;42.87;;
64642;Laerm;59936;51.490;5.436;2023-07-29T03:26:14;44.40;37.39;63.69;;
64642;Laerm;59936;51.490;5.436;2023-07-29T03:28:43;41.65;37.22;57.48;;
64642;Laerm;59936;51.490;5.436;2023-07-29T03:31:11;38.76;35.56;46.51;;
64642;Laerm;59936;51.490;5.436;2023-07-29T03:33:40;42.98;36.46;55.84;;
64642;Laerm;59936;51.490;5.436;2023-07-29T03:36:08;39.86;36.78;43.92;;
64642;Laerm;59936;51.490;5.436;2023-07-29T03:38:37;41.19;37.13;48.59;;
64642;Laerm;59936;51.490;5.436;2023-07-29T03:41:09;40.70;37.65;48.99;;
64642;Laerm;59936;51.490;5.436;2023-07-29T03:43:37;40.94;38.05;50.08;;
64642;Laerm;59936;51.490;5.436;2023-07-29T03:46:06;41.23;37.58;46.84;;
64642;Laerm;59936;51.490;5.436;2023-07-29T03:48:35;41.02;36.70;51.68;;
64642;Laerm;59936;51.490;5.436;2023-07-29T03:51:03;41.27;37.80;47.43;;
64642;Laerm;59936;51.490;5.436;2023-07-29T03:53:32;40.64;37.55;45.73;;
64642;Laerm;59936;51.490;5.436;2023-07-29T03:56:00;40.45;37.86;44.52;;
64642;Laerm;59936;51.490;5.436;2023-07-29T03:58:29;39.63;36.21;45.42;;
64642;Laerm;59936;51.490;5.436;2023-07-29T04:00:58;40.04;37.59;44.29;;
64642;Laerm;59936;51.490;5.436;2023-07-29T04:03:26;40.01;37.05;43.87;;
64642;Laerm;59936;51.490;5.436;2023-07-29T04:05:55;39.00;36.45;45.30;;
64642;Laerm;59936;51.490;5.436;2023-07-29T04:08:23;39.40;36.58;48.73;;
64642;Laerm;59936;51.490;5.436;2023-07-29T04:10:52;38.72;35.16;42.73;;
64642;Laerm;59936;51.490;5.436;2023-07-29T04:13:21;40.26;36.99;48.69;;
64642;Laerm;59936;51.490;5.436;2023-07-29T04:15:49;39.81;36.72;50.26;;
64642;Laerm;59936;51.490;5.436;2023-07-29T04:18:18;40.00;37.05;43.64;;
64642;Laerm;59936;51.490;5.436;2023-07-29T04:20:46;40.35;37.58;48.51;;
64642;Laerm;59936;51.490;5.436;2023-07-29T04:23:15;40.95;37.94;47.58;;
64642;Laerm;59936;51.490;5.436;2023-07-29T04:25:43;41.86;39.31;47.43;;
64642;Laerm;59936;51.490;5.436;2023-07-29T04:28:12;41.55;38.69;45.87;;
64642;Laerm;59936;51.490;5.436;2023-07-29T04:30:41;41.49;39.20;49.08;;
64642;Laerm;59936;51.490;5.436;2023-07-29T04:33:10;42.60;40.05;54.25;;
64642;Laerm;59936;51.490;5.436;2023-07-29T04:35:38;42.75;39.54;47.27;;
64642;Laerm;59936;51.490;5.436;2023-07-29T04:38:07;42.03;39.87;44.66;;
64642;Laerm;59936;51.490;5.436;2023-07-29T04:40:35;42.93;40.17;51.77;;
64642;Laerm;59936;51.490;5.436;2023-07-29T04:43:04;42.54;40.09;47.89;;
64642;Laerm;59936;51.490;5.436;2023-07-29T04:45:32;41.94;39.60;48.64;;
64642;Laerm;59936;51.490;5.436;2023-07-29T04:48:01;49.22;39.43;69.44;;
64642;Laerm;59936;51.490;5.436;2023-07-29T04:50:30;42.78;39.51;50.55;;
64642;Laerm;59936;51.490;5.436;2023-07-29T04:52:58;42.18;40.01;49.81;;
64642;Laerm;59936;51.490;5.436;2023-07-29T04:55:27;41.30;39.38;46.45;;
64642;Laerm;59936;51.490;5.436;2023-07-29T04:57:55;41.31;38.40;46.03;;
64642;Laerm;59936;51.490;5.436;2023-07-29T05:00:24;42.69;39.28;54.53;;
64642;Laerm;59936;51.490;5.436;2023-07-29T05:02:53;43.00;39.39;48.20;;
64642;Laerm;59936;51.490;5.436;2023-07-29T05:05:21;44.28;40.70;54.04;;
64642;Laerm;59936;51.490;5.436;2023-07-29T05:07:50;43.89;40.10;55.17;;
64642;Laerm;59936;51.490;5.436;2023-07-29T05:10:18;42.38;39.06;53.99;;
64642;Laerm;59936;51.490;5.436;2023-07-29T05:12:47;43.29;40.43;50.47;;
64642;Laerm;59936;51.490;5.436;2023-07-29T05:15:16;42.82;40.36;48.24;;
64642;Laerm;59936;51.490;5.436;2023-07-29T05:17:44;44.96;40.01;54.64;;
64642;Laerm;59936;51.490;5.436;2023-07-29T05:20:13;44.63;39.75;54.59;;
64642;Laerm;59936;51.490;5.436;2023-07-29T05:22:41;43.47;40.68;52.85;;
64642;Laerm;59936;51.490;5.436;2023-07-29T05:25:10;44.07;41.30;52.87;;
64642;Laerm;59936;51.490;5.436;2023-07-29T05:27:39;42.05;39.32;48.14;;
64642;Laerm;59936;51.490;5.436;2023-07-29T05:30:08;42.13;38.85;60.44;;
64642;Laerm;59936;51.490;5.436;2023-07-29T05:32:36;43.59;39.96;52.20;;
64642;Laerm;59936;51.490;5.436;2023-07-29T05:35:06;43.17;39.77;52.92;;
64642;Laerm;59936;51.490;5.436;2023-07-29T05:37:34;43.97;40.41;52.79;;
64642;Laerm;59936;51.490;5.436;2023-07-29T05:40:03;42.04;39.58;45.54;;
64642;Laerm;59936;51.490;5.436;2023-07-29T05:42:33;42.23;39.45;45.06;;
64642;Laerm;59936;51.490;5.436;2023-07-29T05:45:02;42.77;39.91;47.44;;
64642;Laerm;59936;51.490;5.436;2023-07-29T05:47:30;41.90;39.22;46.73;;
64642;Laerm;59936;51.490;5.436;2023-07-29T05:49:59;41.40;39.17;45.47;;
64642;Laerm;59936;51.490;5.436;2023-07-29T05:52:28;42.71;38.67;57.59;;
64642;Laerm;59936;51.490;5.436;2023-07-29T05:54:56;43.03;39.50;50.81;;
64642;Laerm;59936;51.490;5.436;2023-07-29T05:57:25;43.07;40.65;52.36;;
64642;Laerm;59936;51.490;5.436;2023-07-29T05:59:53;41.76;39.66;50.63;;
64642;Laerm;59936;51.490;5.436;2023-07-29T06:02:22;42.71;39.77;48.57;;
64642;Laerm;59936;51.490;5.436;2023-07-29T06:04:51;42.33;39.84;51.60;;
64642;Laerm;59936;51.490;5.436;2023-07-29T06:07:19;51.30;40.11;63.35;;
64642;Laerm;59936;51.490;5.436;2023-07-29T06:09:48;52.45;41.02;71.08;;
64642;Laerm;59936;51.490;5.436;2023-07-29T06:12:16;52.18;40.43;66.95;;
64642;Laerm;59936;51.490;5.436;2023-07-29T06:14:45;46.05;40.18;61.30;;
64642;Laerm;59936;51.490;5.436;2023-07-29T06:17:13;47.31;39.33;64.63;;
64642;Laerm;59936;51.490;5.436;2023-07-29T06:19:42;54.62;40.77;69.62;;
64642;Laerm;59936;51.490;5.436;2023-07-29T06:22:11;51.80;41.61;69.70;;
64642;Laerm;59936;51.490;5.436;2023-07-29T06:24:39;43.46;40.94;48.97;;
64642;Laerm;59936;51.490;5.436;2023-07-29T06:27:08;43.17;40.15;49.21;;
64642;Laerm;59936;51.490;5.436;2023-07-29T06:29:36;51.17;41.23;64.05;;
64642;Laerm;59936;51.490;5.436;2023-07-29T06:32:05;44.99;41.20;56.89;;
64642;Laerm;59936;51.490;5.436;2023-07-29T06:34:34;44.98;40.80;58.19;;
64642;Laerm;59936;51.490;5.436;2023-07-29T06:37:03;47.76;42.09;59.67;;
64642;Laerm;59936;51.490;5.436;2023-07-29T06:39:31;53.13;41.85;69.11;;
64642;Laerm;59936;51.490;5.436;2023-07-29T06:42:00;43.95;41.07;51.47;;
64642;Laerm;59936;51.490;5.436;2023-07-29T06:44:28;43.97;40.77;52.30;;
64642;Laerm;59936;51.490;5.436;2023-07-29T06:46:58;43.94;40.56;54.68;;
64642;Laerm;59936;51.490;5.436;2023-07-29T06:49:26;44.84;39.58;68.37;;
64642;Laerm;59936;51.490;5.436;2023-07-29T06:51:55;51.78;40.88;64.98;;
64642;Laerm;59936;51.490;5.436;2023-07-29T06:54:25;53.82;40.80;71.95;;
64642;Laerm;59936;51.490;5.436;2023-07-29T06:56:54;44.30;40.81;51.38;;
64642;Laerm;59936;51.490;5.436;2023-07-29T06:59:22;44.36;41.23;53.69;;
64642;Laerm;59936;51.490;5.436;2023-07-29T07:01:51;43.99;40.17;54.49;;
64642;Laerm;59936;51.490;5.436;2023-07-29T07:04:19;44.43;39.79;52.64;;
64642;Laerm;59936;51.490;5.436;2023-07-29T07:06:48;47.95;41.81;75.01;;
64642;Laerm;59936;51.490;5.436;2023-07-29T07:09:16;44.30;41.18;51.21;;
64642;Laerm;59936;51.490;5.436;2023-07-29T07:11:45;44.99;41.55;57.22;;
64642;Laerm;59936;51.490;5.436;2023-07-29T07:14:14;44.72;41.98;53.01;;
64642;Laerm;59936;51.490;5.436;2023-07-29T07:16:42;46.99;40.70;63.25;;
64642;Laerm;59936;51.490;5.436;2023-07-29T07:19:11;51.63;41.30;66.54;;
64642;Laerm;59936;51.490;5.436;2023-07-29T07:21:39;46.01;41.90;58.02;;
64642;Laerm;59936;51.490;5.436;2023-07-29T07:24:08;42.82;39.83;51.83;;
64642;Laerm;59936;51.490;5.436;2023-07-29T07:26:36;41.55;38.40;54.93;;
64642;Laerm;59936;51.490;5.436;2023-07-29T07:29:05;41.87;38.90;51.98;;
64642;Laerm;59936;51.490;5.436;2023-07-29T07:31:34;42.75;39.57;53.62;;
64642;Laerm;59936;51.490;5.436;2023-07-29T07:34:02;42.14;39.71;46.51;;
64642;Laerm;59936;51.490;5.436;2023-07-29T07:36:31;43.76;40.21;51.39;;
64642;Laerm;59936;51.490;5.436;2023-07-29T07:39:00;43.91;41.01;49.27;;
64642;Laerm;59936;51.490;5.436;2023-07-29T07:41:28;53.18;42.09;65.82;;
64642;Laerm;59936;51.490;5.436;2023-07-29T07:43:57;52.25;42.98;65.18;;
64642;Laerm;59936;51.490;5.436;2023-07-29T07:46:25;45.34;42.58;48.93;;
64642;Laerm;59936;51.490;5.436;2023-07-29T07:48:54;49.08;42.09;65.19;;
64642;Laerm;59936;51.490;5.436;2023-07-29T07:51:23;50.41;42.16;66.54;;
64642;Laerm;59936;51.490;5.436;2023-07-29T07:53:51;44.06;41.56;52.78;;
64642;Laerm;59936;51.490;5.436;2023-07-29T07:56:20;43.65;41.22;50.19;;
64642;Laerm;59936;51.490;5.436;2023-07-29T07:58:48;44.42;41.22;63.70;;
64642;Laerm;59936;51.490;5.436;2023-07-29T08:01:17;44.39;41.03;60.33;;
64642;Laerm;59936;51.490;5.436;2023-07-29T08:03:45;45.30;41.90;53.42;;
64642;Laerm;59936;51.490;5.436;2023-07-29T08:06:14;44.87;42.33;54.20;;
64642;Laerm;59936;51.490;5.436;2023-07-29T08:08:43;47.25;43.88;50.75;;
64642;Laerm;59936;51.490;5.436;2023-07-29T08:11:11;46.44;42.76;54.10;;
64642;Laerm;59936;51.490;5.436;2023-07-29T08:13:40;47.54;44.46;55.64;;
64642;Laerm;59936;51.490;5.436;2023-07-29T08:16:08;46.53;43.10;50.49;;
64642;Laerm;59936;51.490;5.436;2023-07-29T08:18:37;48.45;44.83;52.67;;
64642;Laerm;59936;51.490;5.436;2023-07-29T08:21:06;46.45;43.10;52.22;;
64642;Laerm;59936;51.490;5.436;2023-07-29T08:23:36;46.66;43.69;55.71;;
64642;Laerm;59936;51.490;5.436;2023-07-29T08:26:05;48.13;44.25;55.30;;
64642;Laerm;59936;51.490;5.436;2023-07-29T08:28:37;46.11;43.93;52.21;;
64642;Laerm;59936;51.490;5.436;2023-07-29T08:31:07;46.18;43.10;51.59;;
64642;Laerm;59936;51.490;5.436;2023-07-29T08:33:35;46.18;43.96;49.41;;
64642;Laerm;59936;51.490;5.436;2023-07-29T08:36:04;47.30;44.69;55.35;;
64642;Laerm;59936;51.490;5.436;2023-07-29T08:38:33;46.96;44.32;55.81;;
64642;Laerm;59936;51.490;5.436;2023-07-29T08:44:01;52.14;43.50;65.20;;
64642;Laerm;59936;51.490;5.436;2023-07-29T08:46:34;52.88;42.60;66.76;;
64642;Laerm;59936;51.490;5.436;2023-07-29T08:49:03;46.78;42.65;70.06;;
64642;Laerm;59936;51.490;5.436;2023-07-29T08:51:33;52.17;41.88;65.92;;
64642;Laerm;59936;51.490;5.436;2023-07-29T08:54:03;44.09;41.82;47.05;;
64642;Laerm;59936;51.490;5.436;2023-07-29T08:56:32;46.75;42.52;66.23;;
64642;Laerm;59936;51.490;5.436;2023-07-29T08:59:01;46.56;43.64;53.55;;
64642;Laerm;59936;51.490;5.436;2023-07-29T09:01:30;46.90;42.10;61.75;;
64642;Laerm;59936;51.490;5.436;2023-07-29T09:03:59;47.00;43.82;56.12;;
64642;Laerm;59936;51.490;5.436;2023-07-29T09:06:28;49.30;43.32;57.69;;
64642;Laerm;59936;51.490;5.436;2023-07-29T09:08:58;47.67;44.17;53.29;;
64642;Laerm;59936;51.490;5.436;2023-07-29T09:11:27;48.21;43.35;66.02;;
64642;Laerm;59936;51.490;5.436;2023-07-29T09:14:01;48.72;43.00;70.52;;
64642;Laerm;59936;51.490;5.436;2023-07-29T09:16:30;47.27;42.19;55.65;;
64642;Laerm;59936;51.490;5.436;2023-07-29T09:19:02;46.68;42.19;56.93;;
64642;Laerm;59936;51.490;5.436;2023-07-29T09:21:31;45.61;42.80;50.74;;
64642;Laerm;59936;51.490;5.436;2023-07-29T09:24:03;48.22;43.56;59.73;;
64642;Laerm;59936;51.490;5.436;2023-07-29T09:26:32;47.19;42.37;60.05;;
64642;Laerm;59936;51.490;5.436;2023-07-29T09:29:01;47.32;42.92;55.98;;
64642;Laerm;59936;51.490;5.436;2023-07-29T09:31:30;52.88;44.43;64.44;;
64642;Laerm;59936;51.490;5.436;2023-07-29T09:34:01;47.36;44.63;56.72;;
64642;Laerm;59936;51.490;5.436;2023-07-29T09:36:31;46.63;43.96;53.58;;
64642;Laerm;59936;51.490;5.436;2023-07-29T09:39:01;46.91;44.16;54.59;;
64642;Laerm;59936;51.490;5.436;2023-07-29T09:41:30;47.39;44.95;52.59;;
64642;Laerm;59936;51.490;5.436;2023-07-29T09:44:01;46.46;43.02;52.20;;
64642;Laerm;59936;51.490;5.436;2023-07-29T09:46:36;45.55;42.84;51.95;;
64642;Laerm;59936;51.490;5.436;2023-07-29T09:49:07;46.59;43.95;52.09;;
64642;Laerm;59936;51.490;5.436;2023-07-29T09:51:40;46.22;43.72;50.68;;
64642;Laerm;59936;51.490;5.436;2023-07-29T09:54:10;52.23;43.77;69.18;;
64642;Laerm;59936;51.490;5.436;2023-07-29T09:56:41;45.01;42.59;58.82;;
64642;Laerm;59936;51.490;5.436;2023-07-29T09:59:10;44.72;42.17;47.22;;
64642;Laerm;59936;51.490;5.436;2023-07-29T10:01:39;48.33;42.74;53.87;;
64642;Laerm;59936;51.490;5.436;2023-07-29T10:04:09;46.91;43.17;57.11;;
64642;Laerm;59936;51.490;5.436;2023-07-29T10:06:41;45.85;42.13;50.52;;
64642;Laerm;59936;51.490;5.436;2023-07-29T10:09:11;53.00;44.03;68.14;;
64642;Laerm;59936;51.490;5.436;2023-07-29T10:11:42;45.63;43.44;49.20;;
64642;Laerm;59936;51.490;5.436;2023-07-29T10:14:11;45.02;42.27;49.36;;
64642;Laerm;59936;51.490;5.436;2023-07-29T10:16:40;44.63;41.04;49.41;;
64642;Laerm;59936;51.490;5.436;2023-07-29T10:19:09;46.45;41.93;53.72;;
64642;Laerm;59936;51.490;5.436;2023-07-29T10:21:39;44.60;42.84;47.08;;
64642;Laerm;59936;51.490;5.436;2023-07-29T10:24:15;44.82;42.25;49.53;;
64642;Laerm;59936;51.490;5.436;2023-07-29T10:26:49;45.93;42.25;57.13;;
64642;Laerm;59936;51.490;5.436;2023-07-29T10:29:24;46.96;43.80;58.78;;
64642;Laerm;59936;51.490;5.436;2023-07-29T10:31:53;45.24;42.28;47.68;;
64642;Laerm;59936;51.490;5.436;2023-07-29T10:34:24;44.11;41.79;51.40;;
64642;Laerm;59936;51.490;5.436;2023-07-29T10:36:54;44.20;41.61;48.27;;
64642;Laerm;59936;51.490;5.436;2023-07-29T10:39:38;53.02;41.46;69.81;;
64642;Laerm;59936;51.490;5.436;2023-07-29T10:42:07;52.52;43.06;64.50;;
64642;Laerm;59936;51.490;5.436;2023-07-29T10:47:18;44.82;41.88;52.30;;
64642;Laerm;59936;51.490;5.436;2023-07-29T10:49:54;44.85;42.10;47.70;;
64642;Laerm;59936;51.490;5.436;2023-07-29T10:55:25;47.11;42.76;56.34;;
64642;Laerm;59936;51.490;5.436;2023-07-29T10:58:15;54.91;44.58;69.22;;
64642;Laerm;59936;51.490;5.436;2023-07-29T11:00:45;45.03;42.58;50.88;;
64642;Laerm;59936;51.490;5.436;2023-07-29T11:03:14;46.21;42.54;55.23;;
64642;Laerm;59936;51.490;5.436;2023-07-29T11:05:52;44.49;41.06;55.99;;
64642;Laerm;59936;51.490;5.436;2023-07-29T11:08:27;44.96;41.32;59.23;;
64642;Laerm;59936;51.490;5.436;2023-07-29T11:11:04;45.26;41.19;50.92;;
64642;Laerm;59936;51.490;5.436;2023-07-29T11:13:37;43.96;40.57;55.69;;
64642;Laerm;59936;51.490;5.436;2023-07-29T11:16:10;44.93;42.21;50.35;;
64642;Laerm;59936;51.490;5.436;2023-07-29T11:18:39;51.43;41.32;64.64;;
64642;Laerm;59936;51.490;5.436;2023-07-29T11:21:08;49.53;41.25;63.99;;
64642;Laerm;59936;51.490;5.436;2023-07-29T11:23:37;52.77;44.27;65.72;;
64642;Laerm;59936;51.490;5.436;2023-07-29T11:26:06;51.05;41.96;65.36;;
64642;Laerm;59936;51.490;5.436;2023-07-29T11:28:39;44.13;41.39;54.13;;
64642;Laerm;59936;51.490;5.436;2023-07-29T11:31:07;44.22;41.29;52.97;;
64642;Laerm;59936;51.490;5.436;2023-07-29T11:33:38;44.01;41.06;51.74;;
64642;Laerm;59936;51.490;5.436;2023-07-29T11:36:18;44.71;41.61;50.54;;
64642;Laerm;59936;51.490;5.436;2023-07-29T11:38:47;43.71;40.10;53.82;;
64642;Laerm;59936;51.490;5.436;2023-07-29T11:41:20;41.80;39.32;48.15;;
64642;Laerm;59936;51.490;5.436;2023-07-29T11:43:48;51.66;39.39;65.15;;
64642;Laerm;59936;51.490;5.436;2023-07-29T11:46:22;43.38;39.59;50.97;;
64642;Laerm;59936;51.490;5.436;2023-07-29T11:48:50;43.39;38.97;53.72;;
64642;Laerm;59936;51.490;5.436;2023-07-29T11:51:19;52.11;40.99;63.59;;
64642;Laerm;59936;51.490;5.436;2023-07-29T11:53:48;42.01;39.04;51.96;;
64642;Laerm;59936;51.490;5.436;2023-07-29T11:56:17;42.43;38.16;54.88;;
64642;Laerm;59936;51.490;5.436;2023-07-29T11:58:46;43.20;39.22;48.60;;
64642;Laerm;59936;51.490;5.436;2023-07-29T12:01:14;47.13;42.95;60.12;;
64642;Laerm;59936;51.490;5.436;2023-07-29T12:03:43;52.78;42.56;68.75;;
64642;Laerm;59936;51.490;5.436;2023-07-29T12:06:12;53.59;43.72;67.85;;
64642;Laerm;59936;51.490;5.436;2023-07-29T12:08:42;46.35;42.56;56.53;;
64642;Laerm;59936;51.490;5.436;2023-07-29T12:11:11;48.77;44.55;61.35;;
64642;Laerm;59936;51.490;5.436;2023-07-29T12:13:41;50.04;46.45;60.16;;
64642;Laerm;59936;51.490;5.436;2023-07-29T12:16:16;61.80;49.37;69.10;;
64642;Laerm;59936;51.490;5.436;2023-07-29T12:18:50;65.51;58.67;73.54;;
64642;Laerm;59936;51.490;5.436;2023-07-29T12:21:19;53.85;48.84;65.51;;
64642;Laerm;59936;51.490;5.436;2023-07-29T12:23:50;55.65;46.67;66.76;;
64642;Laerm;59936;51.490;5.436;2023-07-29T12:26:18;53.40;45.60;64.92;;
64642;Laerm;59936;51.490;5.436;2023-07-29T12:28:47;48.58;46.14;60.73;;
64642;Laerm;59936;51.490;5.436;2023-07-29T12:31:15;48.48;45.80;59.90;;
64642;Laerm;59936;51.490;5.436;2023-07-29T12:33:44;49.76;46.62;57.69;;
64642;Laerm;59936;51.490;5.436;2023-07-29T12:36:13;49.87;47.82;53.68;;
64642;Laerm;59936;51.490;5.436;2023-07-29T12:38:43;52.94;46.71;64.19;;
64642;Laerm;59936;51.490;5.436;2023-07-29T12:41:11;48.18;43.60;72.20;;
64642;Laerm;59936;51.490;5.436;2023-07-29T12:43:40;53.82;45.07;64.95;;
64642;Laerm;59936;51.490;5.436;2023-07-29T12:46:08;63.59;59.14;70.60;;
64642;Laerm;59936;51.490;5.436;2023-07-29T12:48:41;63.02;59.79;70.05;;
64642;Laerm;59936;51.490;5.436;2023-07-29T12:51:09;55.15;47.71;64.07;;
64642;Laerm;59936;51.490;5.436;2023-07-29T12:53:38;54.56;46.01;67.49;;
64642;Laerm;59936;51.490;5.436;2023-07-29T12:56:07;49.91;47.23;53.83;;
64642;Laerm;59936;51.490;5.436;2023-07-29T12:58:36;49.54;47.32;54.72;;
64642;Laerm;59936;51.490;5.436;2023-07-29T13:01:04;54.36;47.83;66.50;;
64642;Laerm;59936;51.490;5.436;2023-07-29T13:03:33;49.65;47.30;63.60;;
64642;Laerm;59936;51.490;5.436;2023-07-29T13:06:01;49.21;46.22;59.99;;
64642;Laerm;59936;51.490;5.436;2023-07-29T13:08:30;50.27;46.50;64.59;;
64642;Laerm;59936;51.490;5.436;2023-07-29T13:10:59;48.34;44.45;59.26;;
64642;Laerm;59936;51.490;5.436;2023-07-29T13:13:27;49.07;44.81;68.30;;
64642;Laerm;59936;51.490;5.436;2023-07-29T13:15:57;47.85;44.99;51.74;;
64642;Laerm;59936;51.490;5.436;2023-07-29T13:18:25;47.69;44.26;66.23;;
64642;Laerm;59936;51.490;5.436;2023-07-29T13:20:54;45.61;42.71;53.09;;
64642;Laerm;59936;51.490;5.436;2023-07-29T13:23:24;54.00;42.89;69.88;;
64642;Laerm;59936;51.490;5.436;2023-07-29T13:25:52;55.13;42.02;70.83;;
64642;Laerm;59936;51.490;5.436;2023-07-29T13:28:21;45.93;41.44;61.36;;
64642;Laerm;59936;51.490;5.436;2023-07-29T13:30:50;54.24;42.40;67.31;;
64642;Laerm;59936;51.490;5.436;2023-07-29T13:33:18;45.05;41.80;51.56;;
64642;Laerm;59936;51.490;5.436;2023-07-29T13:35:47;52.14;41.69;66.80;;
64642;Laerm;59936;51.490;5.436;2023-07-29T13:38:15;46.43;41.95;58.34;;
64642;Laerm;59936;51.490;5.436;2023-07-29T13:40:44;46.38;42.25;66.80;;
64642;Laerm;59936;51.490;5.436;2023-07-29T13:43:14;46.53;43.64;52.12;;
64642;Laerm;59936;51.490;5.436;2023-07-29T13:45:42;45.47;43.03;49.01;;
64642;Laerm;59936;51.490;5.436;2023-07-29T13:48:11;45.31;41.13;50.05;;
64642;Laerm;59936;51.490;5.436;2023-07-29T13:50:39;45.44;42.09;58.48;;
64642;Laerm;59936;51.490;5.436;2023-07-29T13:53:08;44.55;41.87;54.83;;
64642;Laerm;59936;51.490;5.436;2023-07-29T13:55:36;44.15;40.65;51.04;;
64642;Laerm;59936;51.490;5.436;2023-07-29T13:58:05;43.07;40.21;46.66;;
64642;Laerm;59936;51.490;5.436;2023-07-29T14:00:34;43.98;40.97;53.03;;
64642;Laerm;59936;51.490;5.436;2023-07-29T14:03:02;52.11;40.62;65.12;;
64642;Laerm;59936;51.490;5.436;2023-07-29T14:05:31;45.08;41.93;51.55;;
64642;Laerm;59936;51.490;5.436;2023-07-29T14:08:00;46.20;42.94;54.27;;
64642;Laerm;59936;51.490;5.436;2023-07-29T14:10:28;52.51;43.34;67.09;;
64642;Laerm;59936;51.490;5.436;2023-07-29T14:12:57;51.30;42.29;64.63;;
64642;Laerm;59936;51.490;5.436;2023-07-29T14:15:25;48.85;40.37;65.55;;